sensor_id;sensor_type;location;lat;lon;timestamp;P1;durP1;ratioP1;P2;durP2;ratioP2
61696;SDS011;47610;52.252;20.922;2023-05-19T00:03:28;5.10;;;1.40;;
61696;SDS011;47610;52.252;20.922;2023-05-19T00:08:32;3.70;;;1.30;;
61696;SDS011;47610;52.252;20.922;2023-05-19T00:13:38;1.90;;;1.10;;
61696;SDS011;47610;52.252;20.922;2023-05-19T00:18:42;3.90;;;1.40;;
61696;SDS011;47610;52.252;20.922;2023-05-19T00:23:45;4.10;;;1.20;;
61696;SDS011;47610;52.252;20.922;2023-05-19T00:28:48;3.70;;;1.20;;
61696;SDS011;47610;52.252;20.922;2023-05-19T00:33:51;3.30;;;1.20;;
61696;SDS011;47610;52.252;20.922;2023-05-19T00:38:55;2.20;;;1.30;;
61696;SDS011;47610;52.252;20.922;2023-05-19T00:43:58;4.90;;;1.30;;
61696;SDS011;47610;52.252;20.922;2023-05-19T00:49:01;2.30;;;1.10;;
61696;SDS011;47610;52.252;20.922;2023-05-19T00:54:04;3.30;;;1.20;;
61696;SDS011;47610;52.252;20.922;2023-05-19T00:59:08;2.90;;;1.70;;
61696;SDS011;47610;52.252;20.922;2023-05-19T01:04:11;1.90;;;1.00;;
61696;SDS011;47610;52.252;20.922;2023-05-19T01:09:14;2.80;;;1.40;;
61696;SDS011;47610;52.252;20.922;2023-05-19T01:14:18;3.80;;;1.20;;
61696;SDS011;47610;52.252;20.922;2023-05-19T01:19:30;3.00;;;1.20;;
61696;SDS011;47610;52.252;20.922;2023-05-19T01:30:17;2.90;;;1.30;;
61696;SDS011;47610;52.252;20.922;2023-05-19T01:35:26;3.80;;;1.40;;
61696;SDS011;47610;52.252;20.922;2023-05-19T01:40:31;3.40;;;1.80;;
61696;SDS011;47610;52.252;20.922;2023-05-19T01:45:35;2.70;;;1.70;;
61696;SDS011;47610;52.252;20.922;2023-05-19T01:50:39;2.70;;;1.30;;
61696;SDS011;47610;52.252;20.922;2023-05-19T01:55:43;2.20;;;1.30;;
61696;SDS011;47610;52.252;20.922;2023-05-19T02:00:51;3.90;;;1.70;;
61696;SDS011;47610;52.252;20.922;2023-05-19T02:06:02;3.90;;;1.80;;
61696;SDS011;47610;52.252;20.922;2023-05-19T02:11:18;4.00;;;1.50;;
61696;SDS011;47610;52.252;20.922;2023-05-19T02:16:27;4.90;;;2.00;;
61696;SDS011;47610;52.252;20.922;2023-05-19T02:21:31;3.60;;;2.10;;
61696;SDS011;47610;52.252;20.922;2023-05-19T02:26:34;3.30;;;1.60;;
61696;SDS011;47610;52.252;20.922;2023-05-19T02:31:37;4.80;;;2.00;;
61696;SDS011;47610;52.252;20.922;2023-05-19T02:36:41;5.80;;;2.30;;
61696;SDS011;47610;52.252;20.922;2023-05-19T02:41:44;5.10;;;2.10;;
61696;SDS011;47610;52.252;20.922;2023-05-19T02:46:47;4.10;;;2.30;;
61696;SDS011;47610;52.252;20.922;2023-05-19T02:51:50;4.00;;;2.30;;
61696;SDS011;47610;52.252;20.922;2023-05-19T02:56:54;3.50;;;2.10;;
61696;SDS011;47610;52.252;20.922;2023-05-19T03:01:58;4.10;;;2.10;;
61696;SDS011;47610;52.252;20.922;2023-05-19T03:07:02;4.30;;;2.40;;
61696;SDS011;47610;52.252;20.922;2023-05-19T03:12:05;4.30;;;2.40;;
61696;SDS011;47610;52.252;20.922;2023-05-19T03:17:09;3.60;;;2.20;;
61696;SDS011;47610;52.252;20.922;2023-05-19T03:22:12;3.40;;;2.30;;
61696;SDS011;47610;52.252;20.922;2023-05-19T03:27:15;4.60;;;2.40;;
61696;SDS011;47610;52.252;20.922;2023-05-19T03:32:19;5.10;;;2.30;;
61696;SDS011;47610;52.252;20.922;2023-05-19T03:37:22;4.50;;;2.50;;
61696;SDS011;47610;52.252;20.922;2023-05-19T03:42:25;4.10;;;2.50;;
61696;SDS011;47610;52.252;20.922;2023-05-19T03:47:28;6.00;;;3.00;;
61696;SDS011;47610;52.252;20.922;2023-05-19T03:52:32;4.20;;;2.40;;
61696;SDS011;47610;52.252;20.922;2023-05-19T03:57:35;4.00;;;2.40;;
61696;SDS011;47610;52.252;20.922;2023-05-19T04:02:38;4.50;;;2.30;;
61696;SDS011;47610;52.252;20.922;2023-05-19T04:07:42;6.40;;;3.00;;
61696;SDS011;47610;52.252;20.922;2023-05-19T04:12:45;6.20;;;2.80;;
61696;SDS011;47610;52.252;20.922;2023-05-19T04:17:48;5.30;;;3.00;;
61696;SDS011;47610;52.252;20.922;2023-05-19T04:22:51;5.10;;;2.60;;
61696;SDS011;47610;52.252;20.922;2023-05-19T04:27:54;4.50;;;2.80;;
61696;SDS011;47610;52.252;20.922;2023-05-19T04:32:58;6.20;;;2.70;;
61696;SDS011;47610;52.252;20.922;2023-05-19T04:38:01;4.30;;;2.90;;
61696;SDS011;47610;52.252;20.922;2023-05-19T04:43:04;4.20;;;2.70;;
61696;SDS011;47610;52.252;20.922;2023-05-19T04:48:07;4.60;;;2.30;;
61696;SDS011;47610;52.252;20.922;2023-05-19T04:53:10;5.20;;;2.30;;
61696;SDS011;47610;52.252;20.922;2023-05-19T04:58:14;5.30;;;2.50;;
61696;SDS011;47610;52.252;20.922;2023-05-19T05:03:17;4.40;;;2.50;;
61696;SDS011;47610;52.252;20.922;2023-05-19T05:08:20;6.10;;;2.90;;
61696;SDS011;47610;52.252;20.922;2023-05-19T05:13:23;3.70;;;2.50;;
61696;SDS011;47610;52.252;20.922;2023-05-19T05:18:27;5.00;;;2.90;;
61696;SDS011;47610;52.252;20.922;2023-05-19T05:23:32;4.60;;;3.20;;
61696;SDS011;47610;52.252;20.922;2023-05-19T05:28:36;4.90;;;2.70;;
61696;SDS011;47610;52.252;20.922;2023-05-19T05:33:39;5.80;;;2.80;;
61696;SDS011;47610;52.252;20.922;2023-05-19T05:38:42;4.40;;;2.80;;
61696;SDS011;47610;52.252;20.922;2023-05-19T05:43:46;4.30;;;2.60;;
61696;SDS011;47610;52.252;20.922;2023-05-19T05:48:49;4.70;;;2.90;;
61696;SDS011;47610;52.252;20.922;2023-05-19T05:53:53;4.70;;;2.40;;
61696;SDS011;47610;52.252;20.922;2023-05-19T05:58:57;4.80;;;2.80;;
61696;SDS011;47610;52.252;20.922;2023-05-19T06:04:01;2.90;;;2.10;;
61696;SDS011;47610;52.252;20.922;2023-05-19T06:09:04;3.50;;;2.20;;
61696;SDS011;47610;52.252;20.922;2023-05-19T06:14:07;4.30;;;2.10;;
61696;SDS011;47610;52.252;20.922;2023-05-19T06:19:10;4.30;;;2.70;;
61696;SDS011;47610;52.252;20.922;2023-05-19T06:24:14;3.60;;;2.20;;
61696;SDS011;47610;52.252;20.922;2023-05-19T06:29:17;4.50;;;2.30;;
61696;SDS011;47610;52.252;20.922;2023-05-19T06:34:20;5.20;;;2.20;;
61696;SDS011;47610;52.252;20.922;2023-05-19T06:39:23;4.10;;;2.50;;
61696;SDS011;47610;52.252;20.922;2023-05-19T06:44:26;5.00;;;2.20;;
61696;SDS011;47610;52.252;20.922;2023-05-19T06:49:30;5.40;;;2.30;;
61696;SDS011;47610;52.252;20.922;2023-05-19T06:54:33;3.40;;;2.20;;
61696;SDS011;47610;52.252;20.922;2023-05-19T06:59:36;6.70;;;2.40;;
61696;SDS011;47610;52.252;20.922;2023-05-19T07:04:39;3.70;;;2.10;;
61696;SDS011;47610;52.252;20.922;2023-05-19T07:09:42;5.20;;;2.50;;
61696;SDS011;47610;52.252;20.922;2023-05-19T07:14:46;4.60;;;2.20;;
61696;SDS011;47610;52.252;20.922;2023-05-19T07:19:49;3.90;;;2.00;;
61696;SDS011;47610;52.252;20.922;2023-05-19T07:24:52;11.20;;;2.70;;
61696;SDS011;47610;52.252;20.922;2023-05-19T07:29:55;4.00;;;2.10;;
61696;SDS011;47610;52.252;20.922;2023-05-19T07:34:59;3.30;;;2.10;;
61696;SDS011;47610;52.252;20.922;2023-05-19T07:40:02;4.60;;;2.50;;
61696;SDS011;47610;52.252;20.922;2023-05-19T07:45:07;4.90;;;1.90;;
61696;SDS011;47610;52.252;20.922;2023-05-19T07:50:11;7.40;;;2.20;;
61696;SDS011;47610;52.252;20.922;2023-05-19T07:55:14;11.90;;;2.70;;
61696;SDS011;47610;52.252;20.922;2023-05-19T08:00:18;7.40;;;2.50;;
61696;SDS011;47610;52.252;20.922;2023-05-19T08:05:21;3.10;;;2.00;;
61696;SDS011;47610;52.252;20.922;2023-05-19T08:10:25;5.70;;;2.20;;
61696;SDS011;47610;52.252;20.922;2023-05-19T08:15:28;5.90;;;3.30;;
61696;SDS011;47610;52.252;20.922;2023-05-19T08:20:31;4.60;;;2.50;;
61696;SDS011;47610;52.252;20.922;2023-05-19T08:25:35;6.30;;;2.60;;
61696;SDS011;47610;52.252;20.922;2023-05-19T08:30:38;6.00;;;2.70;;
61696;SDS011;47610;52.252;20.922;2023-05-19T08:35:41;7.90;;;2.70;;
61696;SDS011;47610;52.252;20.922;2023-05-19T08:40:45;5.90;;;2.70;;
61696;SDS011;47610;52.252;20.922;2023-05-19T08:45:48;7.40;;;2.40;;
61696;SDS011;47610;52.252;20.922;2023-05-19T08:50:55;6.30;;;3.90;;
61696;SDS011;47610;52.252;20.922;2023-05-19T08:56:05;6.30;;;3.80;;
61696;SDS011;47610;52.252;20.922;2023-05-19T09:01:12;7.00;;;3.30;;
61696;SDS011;47610;52.252;20.922;2023-05-19T09:06:16;8.80;;;3.00;;
61696;SDS011;47610;52.252;20.922;2023-05-19T09:11:20;9.10;;;2.80;;
61696;SDS011;47610;52.252;20.922;2023-05-19T09:16:23;10.20;;;3.00;;
61696;SDS011;47610;52.252;20.922;2023-05-19T09:21:27;11.60;;;3.30;;
61696;SDS011;47610;52.252;20.922;2023-05-19T09:26:36;8.10;;;3.00;;
61696;SDS011;47610;52.252;20.922;2023-05-19T09:31:42;8.60;;;4.10;;
61696;SDS011;47610;52.252;20.922;2023-05-19T09:36:49;9.90;;;3.50;;
61696;SDS011;47610;52.252;20.922;2023-05-19T09:41:53;9.90;;;3.50;;
61696;SDS011;47610;52.252;20.922;2023-05-19T09:46:57;8.50;;;3.50;;
61696;SDS011;47610;52.252;20.922;2023-05-19T09:52:01;13.30;;;3.70;;
61696;SDS011;47610;52.252;20.922;2023-05-19T10:02:08;12.60;;;4.60;;
61696;SDS011;47610;52.252;20.922;2023-05-19T10:07:17;8.90;;;3.50;;
61696;SDS011;47610;52.252;20.922;2023-05-19T10:12:21;10.70;;;4.40;;
61696;SDS011;47610;52.252;20.922;2023-05-19T10:17:26;10.70;;;4.20;;
61696;SDS011;47610;52.252;20.922;2023-05-19T10:22:29;14.00;;;4.20;;
61696;SDS011;47610;52.252;20.922;2023-05-19T10:27:33;10.70;;;4.70;;
61696;SDS011;47610;52.252;20.922;2023-05-19T10:32:39;10.80;;;3.90;;
61696;SDS011;47610;52.252;20.922;2023-05-19T10:37:48;11.70;;;3.40;;
61696;SDS011;47610;52.252;20.922;2023-05-19T10:43:04;12.70;;;4.40;;
61696;SDS011;47610;52.252;20.922;2023-05-19T10:48:19;10.50;;;4.10;;
61696;SDS011;47610;52.252;20.922;2023-05-19T10:53:26;15.80;;;4.80;;
61696;SDS011;47610;52.252;20.922;2023-05-19T10:58:40;10.40;;;4.20;;
61696;SDS011;47610;52.252;20.922;2023-05-19T11:03:51;14.90;;;4.50;;
61696;SDS011;47610;52.252;20.922;2023-05-19T11:13:58;11.40;;;4.60;;
61696;SDS011;47610;52.252;20.922;2023-05-19T11:19:02;16.30;;;4.40;;
61696;SDS011;47610;52.252;20.922;2023-05-19T11:24:08;13.20;;;4.20;;
61696;SDS011;47610;52.252;20.922;2023-05-19T11:29:31;10.00;;;4.30;;
61696;SDS011;47610;52.252;20.922;2023-05-19T11:34:34;8.70;;;4.60;;
61696;SDS011;47610;52.252;20.922;2023-05-19T11:39:39;12.10;;;5.00;;
61696;SDS011;47610;52.252;20.922;2023-05-19T11:44:42;14.90;;;4.60;;
61696;SDS011;47610;52.252;20.922;2023-05-19T11:49:47;10.40;;;4.80;;
61696;SDS011;47610;52.252;20.922;2023-05-19T11:54:51;12.40;;;4.30;;
61696;SDS011;47610;52.252;20.922;2023-05-19T11:59:54;8.10;;;3.90;;
61696;SDS011;47610;52.252;20.922;2023-05-19T12:04:58;11.70;;;5.20;;
61696;SDS011;47610;52.252;20.922;2023-05-19T12:10:01;7.70;;;3.80;;
61696;SDS011;47610;52.252;20.922;2023-05-19T12:15:07;9.90;;;4.80;;
61696;SDS011;47610;52.252;20.922;2023-05-19T12:20:12;8.40;;;4.00;;
61696;SDS011;47610;52.252;20.922;2023-05-19T12:25:15;12.20;;;4.20;;
61696;SDS011;47610;52.252;20.922;2023-05-19T12:30:23;8.80;;;3.90;;
61696;SDS011;47610;52.252;20.922;2023-05-19T12:35:28;8.20;;;4.20;;
61696;SDS011;47610;52.252;20.922;2023-05-19T12:40:33;7.10;;;3.50;;
61696;SDS011;47610;52.252;20.922;2023-05-19T12:45:36;8.70;;;4.70;;
61696;SDS011;47610;52.252;20.922;2023-05-19T12:50:41;7.70;;;4.40;;
61696;SDS011;47610;52.252;20.922;2023-05-19T12:55:45;9.70;;;4.50;;
61696;SDS011;47610;52.252;20.922;2023-05-19T13:00:48;13.60;;;4.90;;
61696;SDS011;47610;52.252;20.922;2023-05-19T13:05:56;8.80;;;4.30;;
61696;SDS011;47610;52.252;20.922;2023-05-19T13:11:00;9.10;;;4.20;;
61696;SDS011;47610;52.252;20.922;2023-05-19T13:16:03;11.00;;;4.30;;
61696;SDS011;47610;52.252;20.922;2023-05-19T13:21:07;7.20;;;4.00;;
61696;SDS011;47610;52.252;20.922;2023-05-19T13:26:10;9.40;;;4.20;;
61696;SDS011;47610;52.252;20.922;2023-05-19T13:31:14;10.30;;;4.40;;
61696;SDS011;47610;52.252;20.922;2023-05-19T13:36:18;8.30;;;4.60;;
61696;SDS011;47610;52.252;20.922;2023-05-19T13:41:23;13.10;;;4.40;;
61696;SDS011;47610;52.252;20.922;2023-05-19T13:51:28;12.00;;;7.40;;
61696;SDS011;47610;52.252;20.922;2023-05-19T13:56:31;9.60;;;4.30;;
61696;SDS011;47610;52.252;20.922;2023-05-19T14:01:34;8.00;;;4.10;;
61696;SDS011;47610;52.252;20.922;2023-05-19T14:06:37;7.50;;;3.80;;
61696;SDS011;47610;52.252;20.922;2023-05-19T14:11:40;12.60;;;4.40;;
61696;SDS011;47610;52.252;20.922;2023-05-19T14:16:44;9.90;;;4.30;;
61696;SDS011;47610;52.252;20.922;2023-05-19T14:21:47;8.20;;;4.20;;
61696;SDS011;47610;52.252;20.922;2023-05-19T14:31:53;6.50;;;4.20;;
61696;SDS011;47610;52.252;20.922;2023-05-19T14:36:56;8.20;;;5.00;;
61696;SDS011;47610;52.252;20.922;2023-05-19T14:41:59;9.00;;;4.00;;
61696;SDS011;47610;52.252;20.922;2023-05-19T14:47:03;13.20;;;9.20;;
61696;SDS011;47610;52.252;20.922;2023-05-19T14:52:06;10.10;;;4.50;;
61696;SDS011;47610;52.252;20.922;2023-05-19T14:57:09;7.40;;;3.70;;
61696;SDS011;47610;52.252;20.922;2023-05-19T15:02:13;8.40;;;4.30;;
61696;SDS011;47610;52.252;20.922;2023-05-19T15:07:16;6.70;;;3.90;;
61696;SDS011;47610;52.252;20.922;2023-05-19T15:12:20;8.70;;;4.20;;
61696;SDS011;47610;52.252;20.922;2023-05-19T15:17:23;7.00;;;3.40;;
61696;SDS011;47610;52.252;20.922;2023-05-19T15:22:26;10.70;;;3.90;;
61696;SDS011;47610;52.252;20.922;2023-05-19T15:27:29;6.70;;;4.10;;
61696;SDS011;47610;52.252;20.922;2023-05-19T15:32:34;7.80;;;4.10;;
61696;SDS011;47610;52.252;20.922;2023-05-19T15:37:37;8.20;;;4.30;;
61696;SDS011;47610;52.252;20.922;2023-05-19T15:42:40;13.10;;;5.00;;
61696;SDS011;47610;52.252;20.922;2023-05-19T15:47:44;11.30;;;4.70;;
61696;SDS011;47610;52.252;20.922;2023-05-19T15:52:47;7.30;;;4.40;;
61696;SDS011;47610;52.252;20.922;2023-05-19T15:57:50;8.60;;;5.00;;
61696;SDS011;47610;52.252;20.922;2023-05-19T16:02:53;11.80;;;5.70;;
61696;SDS011;47610;52.252;20.922;2023-05-19T16:07:56;10.60;;;6.00;;
61696;SDS011;47610;52.252;20.922;2023-05-19T16:12:59;14.10;;;4.60;;
61696;SDS011;47610;52.252;20.922;2023-05-19T16:18:03;12.50;;;5.50;;
61696;SDS011;47610;52.252;20.922;2023-05-19T16:23:06;9.50;;;4.60;;
61696;SDS011;47610;52.252;20.922;2023-05-19T16:28:09;17.20;;;11.60;;
61696;SDS011;47610;52.252;20.922;2023-05-19T16:33:12;10.80;;;5.40;;
61696;SDS011;47610;52.252;20.922;2023-05-19T16:38:15;9.90;;;5.40;;
61696;SDS011;47610;52.252;20.922;2023-05-19T16:43:19;9.90;;;4.90;;
61696;SDS011;47610;52.252;20.922;2023-05-19T16:48:22;11.30;;;5.30;;
61696;SDS011;47610;52.252;20.922;2023-05-19T16:53:25;8.20;;;4.70;;
61696;SDS011;47610;52.252;20.922;2023-05-19T16:58:28;10.50;;;4.90;;
61696;SDS011;47610;52.252;20.922;2023-05-19T17:03:32;8.40;;;4.80;;
61696;SDS011;47610;52.252;20.922;2023-05-19T17:08:35;12.00;;;5.50;;
61696;SDS011;47610;52.252;20.922;2023-05-19T17:13:38;15.40;;;6.90;;
61696;SDS011;47610;52.252;20.922;2023-05-19T17:18:41;10.90;;;5.00;;
61696;SDS011;47610;52.252;20.922;2023-05-19T17:23:44;9.80;;;4.80;;
61696;SDS011;47610;52.252;20.922;2023-05-19T17:28:48;10.00;;;4.60;;
61696;SDS011;47610;52.252;20.922;2023-05-19T17:33:51;8.90;;;5.10;;
61696;SDS011;47610;52.252;20.922;2023-05-19T17:38:54;13.60;;;5.40;;
61696;SDS011;47610;52.252;20.922;2023-05-19T17:43:57;9.30;;;5.20;;
61696;SDS011;47610;52.252;20.922;2023-05-19T17:49:00;12.50;;;6.90;;
61696;SDS011;47610;52.252;20.922;2023-05-19T17:54:04;10.80;;;5.30;;
61696;SDS011;47610;52.252;20.922;2023-05-19T18:04:11;8.90;;;4.40;;
61696;SDS011;47610;52.252;20.922;2023-05-19T18:09:15;11.90;;;4.60;;
61696;SDS011;47610;52.252;20.922;2023-05-19T18:14:23;9.00;;;4.60;;
61696;SDS011;47610;52.252;20.922;2023-05-19T18:19:26;8.40;;;4.60;;
61696;SDS011;47610;52.252;20.922;2023-05-19T18:24:29;8.40;;;4.40;;
61696;SDS011;47610;52.252;20.922;2023-05-19T18:29:33;10.30;;;5.00;;
61696;SDS011;47610;52.252;20.922;2023-05-19T18:34:36;7.70;;;4.50;;
61696;SDS011;47610;52.252;20.922;2023-05-19T18:39:39;8.80;;;4.50;;
61696;SDS011;47610;52.252;20.922;2023-05-19T18:44:43;8.00;;;4.80;;
61696;SDS011;47610;52.252;20.922;2023-05-19T18:49:46;10.30;;;5.00;;
61696;SDS011;47610;52.252;20.922;2023-05-19T18:54:49;10.90;;;5.40;;
61696;SDS011;47610;52.252;20.922;2023-05-19T18:59:52;10.00;;;5.00;;
61696;SDS011;47610;52.252;20.922;2023-05-19T19:04:56;8.50;;;4.90;;
61696;SDS011;47610;52.252;20.922;2023-05-19T19:09:59;10.40;;;5.00;;
61696;SDS011;47610;52.252;20.922;2023-05-19T19:15:03;11.30;;;5.70;;
61696;SDS011;47610;52.252;20.922;2023-05-19T19:20:09;9.90;;;6.00;;
61696;SDS011;47610;52.252;20.922;2023-05-19T19:25:13;8.70;;;5.50;;
61696;SDS011;47610;52.252;20.922;2023-05-19T19:30:16;10.60;;;5.80;;
61696;SDS011;47610;52.252;20.922;2023-05-19T19:35:20;11.50;;;6.00;;
61696;SDS011;47610;52.252;20.922;2023-05-19T19:40:23;14.20;;;5.80;;
61696;SDS011;47610;52.252;20.922;2023-05-19T19:45:26;11.10;;;6.20;;
61696;SDS011;47610;52.252;20.922;2023-05-19T19:50:30;15.30;;;5.90;;
61696;SDS011;47610;52.252;20.922;2023-05-19T19:55:33;11.50;;;6.30;;
61696;SDS011;47610;52.252;20.922;2023-05-19T20:00:36;9.30;;;5.60;;
61696;SDS011;47610;52.252;20.922;2023-05-19T20:05:39;14.20;;;6.20;;
61696;SDS011;47610;52.252;20.922;2023-05-19T20:10:44;12.30;;;6.50;;
61696;SDS011;47610;52.252;20.922;2023-05-19T20:15:48;8.80;;;5.40;;
61696;SDS011;47610;52.252;20.922;2023-05-19T20:20:51;8.90;;;5.30;;
61696;SDS011;47610;52.252;20.922;2023-05-19T20:25:54;8.90;;;5.80;;
61696;SDS011;47610;52.252;20.922;2023-05-19T20:30:58;19.70;;;12.20;;
61696;SDS011;47610;52.252;20.922;2023-05-19T20:36:01;12.10;;;7.40;;
61696;SDS011;47610;52.252;20.922;2023-05-19T20:41:05;11.20;;;6.00;;
61696;SDS011;47610;52.252;20.922;2023-05-19T20:46:08;11.80;;;6.40;;
61696;SDS011;47610;52.252;20.922;2023-05-19T20:51:11;12.90;;;6.50;;
61696;SDS011;47610;52.252;20.922;2023-05-19T20:56:14;12.10;;;6.00;;
61696;SDS011;47610;52.252;20.922;2023-05-19T21:01:19;13.70;;;6.50;;
61696;SDS011;47610;52.252;20.922;2023-05-19T21:06:22;11.40;;;6.30;;
61696;SDS011;47610;52.252;20.922;2023-05-19T21:11:25;10.00;;;6.90;;
61696;SDS011;47610;52.252;20.922;2023-05-19T21:16:28;12.90;;;6.10;;
61696;SDS011;47610;52.252;20.922;2023-05-19T21:21:32;10.40;;;6.60;;
61696;SDS011;47610;52.252;20.922;2023-05-19T21:26:35;10.80;;;6.30;;
61696;SDS011;47610;52.252;20.922;2023-05-19T21:31:38;15.10;;;7.50;;
61696;SDS011;47610;52.252;20.922;2023-05-19T21:36:41;14.00;;;7.10;;
61696;SDS011;47610;52.252;20.922;2023-05-19T21:41:45;15.70;;;6.80;;
61696;SDS011;47610;52.252;20.922;2023-05-19T21:46:48;11.30;;;7.10;;
61696;SDS011;47610;52.252;20.922;2023-05-19T21:51:51;13.40;;;6.90;;
61696;SDS011;47610;52.252;20.922;2023-05-19T21:56:54;14.70;;;7.30;;
61696;SDS011;47610;52.252;20.922;2023-05-19T22:01:57;14.50;;;7.00;;
61696;SDS011;47610;52.252;20.922;2023-05-19T22:07:01;12.60;;;7.00;;
61696;SDS011;47610;52.252;20.922;2023-05-19T22:12:04;12.20;;;6.60;;
61696;SDS011;47610;52.252;20.922;2023-05-19T22:17:08;11.30;;;6.30;;
61696;SDS011;47610;52.252;20.922;2023-05-19T22:22:11;10.60;;;6.80;;
61696;SDS011;47610;52.252;20.922;2023-05-19T22:27:15;13.40;;;8.00;;
61696;SDS011;47610;52.252;20.922;2023-05-19T22:32:18;13.10;;;6.60;;
61696;SDS011;47610;52.252;20.922;2023-05-19T22:37:21;14.10;;;6.40;;
61696;SDS011;47610;52.252;20.922;2023-05-19T22:42:24;11.60;;;7.00;;
61696;SDS011;47610;52.252;20.922;2023-05-19T22:47:27;11.00;;;6.40;;
61696;SDS011;47610;52.252;20.922;2023-05-19T22:52:31;11.30;;;6.10;;
61696;SDS011;47610;52.252;20.922;2023-05-19T22:57:34;12.90;;;7.40;;
61696;SDS011;47610;52.252;20.922;2023-05-19T23:02:37;10.50;;;5.90;;
61696;SDS011;47610;52.252;20.922;2023-05-19T23:07:40;15.10;;;6.40;;
61696;SDS011;47610;52.252;20.922;2023-05-19T23:12:43;10.60;;;6.20;;
61696;SDS011;47610;52.252;20.922;2023-05-19T23:17:47;9.60;;;6.30;;
61696;SDS011;47610;52.252;20.922;2023-05-19T23:22:50;13.60;;;6.00;;
61696;SDS011;47610;52.252;20.922;2023-05-19T23:27:53;9.50;;;5.50;;
61696;SDS011;47610;52.252;20.922;2023-05-19T23:32:56;11.70;;;5.70;;
61696;SDS011;47610;52.252;20.922;2023-05-19T23:37:59;8.30;;;5.50;;
61696;SDS011;47610;52.252;20.922;2023-05-19T23:43:02;9.60;;;5.60;;
61696;SDS011;47610;52.252;20.922;2023-05-19T23:48:06;9.80;;;5.10;;
61696;SDS011;47610;52.252;20.922;2023-05-19T23:53:09;8.50;;;5.20;;
61696;SDS011;47610;52.252;20.922;2023-05-19T23:58:12;10.70;;;5.20;;
